首页
METAR-TAF:

METAR-TAF

机场 :

帕罗斯岛, 希腊

纬度: 37-01-15N, 经度: 025-06-46E, 海拔: 38米

当前天气观测

该预报发布于10分钟前的00:50 UTC
风速1节,风向多变
温度 26°C
湿度 74%
气压 1004 hPa

METAR: LGPA 180050Z AUTO VRB01KT //// // ////// 26/21 Q1004 RE//

时间: 04:00 (01:00 UTC)


TAF: 丢失

超过4000个机场的气象观测和天气预报(METAR&TAF报告)。

可查询的气象台以黄色和红色小点在地图上表示。

将鼠标移到小点上方,可查看气象台名称。

然后点击查看天气观测和预报。

如需切换地图:点击带黑十字的绿色按钮放大地图;点击带横线的绿色按钮缩小地图;或者点击绿色箭头查看邻近地区的地图。


METAR-TAF: